createdAt,value
2023-03-27T00:01:16.131Z,11.66
2023-03-27T00:03:43.079Z,11.77
2023-03-27T00:06:16.917Z,11.67
2023-03-27T00:08:46.277Z,11.65
2023-03-27T00:11:13.687Z,11.33
2023-03-27T00:13:49.199Z,11.48
2023-03-27T00:16:17.734Z,11.60
2023-03-27T00:18:45.752Z,11.70
2023-03-27T00:21:12.743Z,11.21
2023-03-27T00:23:39.344Z,11.32
2023-03-27T00:26:06.248Z,11.35
2023-03-27T00:28:32.832Z,11.45
2023-03-27T00:31:00.080Z,11.49
2023-03-27T00:33:27.134Z,11.35
2023-03-27T00:35:54.438Z,11.47
2023-03-27T00:38:22.536Z,11.59
2023-03-27T00:40:50.833Z,11.66
2023-03-27T00:43:35.187Z,11.65
2023-03-27T00:46:27.596Z,11.72
2023-03-27T00:48:56.180Z,11.79
2023-03-27T00:51:24.930Z,11.47
2023-03-27T00:53:52.570Z,11.65
2023-03-27T00:56:19.984Z,11.41
2023-03-27T00:58:50.933Z,11.76
2023-03-27T01:01:20.060Z,11.71
2023-03-27T01:03:49.253Z,11.70
2023-03-27T01:06:16.925Z,11.85
2023-03-27T01:08:45.839Z,11.92
2023-03-27T01:11:38.181Z,11.63
2023-03-27T01:14:37.561Z,11.89
2023-03-27T01:17:18.667Z,11.92
2023-03-27T01:20:20.172Z,11.29
2023-03-27T01:23:01.701Z,11.80
2023-03-27T01:25:53.183Z,11.78
2023-03-27T01:28:27.997Z,11.79
2023-03-27T01:31:15.331Z,11.46
2023-03-27T01:33:56.523Z,11.35
2023-03-27T01:36:51.918Z,11.30
2023-03-27T01:39:44.722Z,10.65
2023-03-27T01:42:31.479Z,10.54
2023-03-27T01:45:28.809Z,10.99
2023-03-27T01:48:01.587Z,10.91
2023-03-27T01:50:51.884Z,10.87
2023-03-27T01:53:28.418Z,10.57
2023-03-27T01:56:02.116Z,10.61
2023-03-27T01:58:36.299Z,10.73
2023-03-27T02:01:05.087Z,11.01
2023-03-27T02:03:45.677Z,10.80
2023-03-27T02:06:21.629Z,10.04
2023-03-27T02:08:57.513Z,10.57
2023-03-27T02:11:29.777Z,10.02
2023-03-27T02:14:01.456Z,10.66
2023-03-27T02:16:34.384Z,10.68
2023-03-27T02:19:07.169Z,10.38
2023-03-27T02:21:34.047Z,10.48
2023-03-27T02:24:05.908Z,10.25
2023-03-27T02:26:33.622Z,9.78
2023-03-27T02:29:21.312Z,10.27
2023-03-27T02:32:19.723Z,10.44
2023-03-27T02:35:03.430Z,9.61
2023-03-27T02:37:50.545Z,9.74
2023-03-27T02:40:59.352Z,10.68
2023-03-27T02:44:04.616Z,10.87
2023-03-27T02:47:06.644Z,10.25
2023-03-27T02:49:39.186Z,9.98
2023-03-27T02:52:14.392Z,10.57
2023-03-27T02:54:48.986Z,10.41
2023-03-27T02:57:20.399Z,10.28
2023-03-27T03:00:14.046Z,10.18
2023-03-27T03:02:45.684Z,10.31
2023-03-27T03:05:23.451Z,10.15
2023-03-27T03:07:50.383Z,10.31
2023-03-27T03:10:16.977Z,10.25
2023-03-27T03:12:43.532Z,10.32
2023-03-27T03:15:11.161Z,10.26
2023-03-27T03:17:37.885Z,10.37
2023-03-27T03:20:05.821Z,10.63
2023-03-27T03:22:32.493Z,10.42
2023-03-27T03:24:59.393Z,10.18
2023-03-27T03:27:29.179Z,9.99
2023-03-27T03:30:09.533Z,9.95
2023-03-27T03:32:48.318Z,10.31
2023-03-27T03:35:15.218Z,9.83
2023-03-27T03:37:41.832Z,10.28
2023-03-27T03:40:12.318Z,10.04
2023-03-27T03:42:51.644Z,9.80
2023-03-27T03:45:22.251Z,9.29
2023-03-27T03:47:48.833Z,9.40
2023-03-27T03:50:15.870Z,9.32
2023-03-27T03:52:43.222Z,9.22
2023-03-27T03:55:11.913Z,9.40
2023-03-27T03:57:38.631Z,9.90
2023-03-27T04:00:13.498Z,9.53
2023-03-27T04:02:53.265Z,9.69
2023-03-27T04:05:21.094Z,9.62
2023-03-27T04:07:51.769Z,9.65
2023-03-27T04:10:39.334Z,9.62
2023-03-27T04:13:12.899Z,9.25
2023-03-27T04:15:49.479Z,9.16
2023-03-27T04:18:21.156Z,9.37
2023-03-27T04:20:49.869Z,9.83
2023-03-27T04:23:18.849Z,9.96
2023-03-27T04:25:47.069Z,10.14
2023-03-27T04:28:18.784Z,9.94
2023-03-27T04:30:51.134Z,9.77
2023-03-27T04:33:51.966Z,10.27
2023-03-27T04:36:44.256Z,10.14
2023-03-27T04:39:16.592Z,9.47
2023-03-27T04:41:48.707Z,9.59
2023-03-27T04:44:19.821Z,9.30
2023-03-27T04:46:50.294Z,9.40
2023-03-27T04:49:20.168Z,9.41
2023-03-27T04:51:57.049Z,9.63
2023-03-27T04:54:27.348Z,9.26
2023-03-27T04:56:54.361Z,8.85
2023-03-27T04:59:22.371Z,9.31
2023-03-27T05:02:08.977Z,9.56
2023-03-27T05:04:45.675Z,9.48
2023-03-27T05:07:20.125Z,9.59
2023-03-27T05:09:47.327Z,9.54
2023-03-27T05:12:13.844Z,9.47
2023-03-27T05:14:48.623Z,9.55
2023-03-27T05:17:32.424Z,9.22
2023-03-27T05:19:59.140Z,9.34
2023-03-27T05:22:25.783Z,8.96
2023-03-27T05:25:01.529Z,9.20
2023-03-27T05:27:28.249Z,9.13
2023-03-27T05:29:57.636Z,9.21
2023-03-27T05:32:24.260Z,9.18
2023-03-27T05:35:11.332Z,8.96
2023-03-27T05:37:44.361Z,8.72
2023-03-27T05:40:25.211Z,9.32
2023-03-27T05:42:54.183Z,9.11
2023-03-27T05:45:24.655Z,8.73
2023-03-27T05:47:58.317Z,8.60
2023-03-27T05:50:30.702Z,8.73
2023-03-27T05:53:06.329Z,8.75
2023-03-27T05:55:43.685Z,8.24
2023-03-27T05:58:11.742Z,8.07
2023-03-27T06:00:41.907Z,8.03
2023-03-27T06:03:11.656Z,8.34
2023-03-27T06:06:00.331Z,8.89
2023-03-27T06:08:32.581Z,8.76
2023-03-27T06:10:59.590Z,8.90
2023-03-27T06:13:33.661Z,8.83
2023-03-27T06:16:08.083Z,8.29
2023-03-27T06:18:53.746Z,8.61
2023-03-27T06:21:22.471Z,8.91
2023-03-27T06:23:56.329Z,8.38
2023-03-27T06:26:22.977Z,8.04
2023-03-27T06:28:49.973Z,8.43
2023-03-27T06:31:17.585Z,8.39
2023-03-27T06:33:54.117Z,8.59
2023-03-27T06:36:56.126Z,8.56
2023-03-27T06:39:22.714Z,8.39
2023-03-27T06:41:51.760Z,8.32
2023-03-27T06:44:34.527Z,8.34
2023-03-27T06:47:12.709Z,8.33
2023-03-27T06:49:58.003Z,8.23
2023-03-27T06:52:27.501Z,8.57
2023-03-27T06:55:03.178Z,8.16
2023-03-27T06:57:31.563Z,8.02
2023-03-27T07:00:02.306Z,8.54
2023-03-27T07:02:57.199Z,8.42
2023-03-27T07:05:46.785Z,8.11
2023-03-27T07:08:22.477Z,8.29
2023-03-27T07:11:07.491Z,8.33
2023-03-27T07:13:42.653Z,8.01
2023-03-27T07:16:15.636Z,8.10
2023-03-27T07:18:42.357Z,8.11
2023-03-27T07:21:09.575Z,7.94
2023-03-27T07:23:36.135Z,7.96
2023-03-27T07:26:06.678Z,7.98
2023-03-27T07:28:54.692Z,8.07
2023-03-27T07:31:36.546Z,7.78
2023-03-27T07:34:10.816Z,7.58
2023-03-27T07:37:06.564Z,8.09
2023-03-27T07:39:35.351Z,7.67
2023-03-27T07:42:02.582Z,8.00
2023-03-27T07:44:44.987Z,7.63
2023-03-27T07:47:12.375Z,7.90
2023-03-27T07:49:40.511Z,7.72
2023-03-27T07:52:16.589Z,8.07
2023-03-27T07:54:56.938Z,7.69
2023-03-27T07:57:29.440Z,7.61
2023-03-27T08:00:11.682Z,7.38
2023-03-27T08:02:50.198Z,7.64
2023-03-27T08:05:17.829Z,7.71
2023-03-27T08:07:52.031Z,8.19
2023-03-27T08:10:40.180Z,7.94
2023-03-27T08:13:08.383Z,7.51
2023-03-27T08:15:35.083Z,8.14
2023-03-27T08:18:03.270Z,7.42
2023-03-27T08:20:30.620Z,8.11
2023-03-27T08:22:58.121Z,8.36
2023-03-27T08:25:34.652Z,8.40
2023-03-27T08:28:05.418Z,8.57
2023-03-27T08:30:32.414Z,7.96
2023-03-27T08:33:00.351Z,8.06
2023-03-27T08:35:27.320Z,8.05
2023-03-27T08:37:54.107Z,8.26
2023-03-27T08:40:59.087Z,8.69
2023-03-27T08:43:37.486Z,8.15
2023-03-27T08:46:07.817Z,8.63
2023-03-27T08:48:48.207Z,8.67
2023-03-27T08:51:22.559Z,7.98
2023-03-27T08:53:56.759Z,8.10
2023-03-27T08:56:27.573Z,8.28
2023-03-27T08:58:55.170Z,7.64
2023-03-27T09:01:45.575Z,8.30
2023-03-27T09:04:17.566Z,7.74
2023-03-27T09:06:59.262Z,8.02
2023-03-27T09:09:33.839Z,8.02
2023-03-27T09:12:10.827Z,7.85
2023-03-27T09:14:44.033Z,8.45
2023-03-27T09:17:24.786Z,8.36
2023-03-27T09:20:06.230Z,8.39
2023-03-27T09:22:45.177Z,8.59
2023-03-27T09:25:28.895Z,8.77
2023-03-27T09:28:01.329Z,8.52
2023-03-27T09:30:34.577Z,8.98
2023-03-27T09:33:07.154Z,8.74
2023-03-27T09:35:35.620Z,8.39
2023-03-27T09:38:12.083Z,8.77
2023-03-27T09:40:57.273Z,8.78
2023-03-27T09:43:33.523Z,8.93
2023-03-27T09:46:02.132Z,8.95
2023-03-27T09:48:36.229Z,9.02
2023-03-27T09:51:48.268Z,9.08
2023-03-27T09:54:56.309Z,9.17
2023-03-27T09:57:35.662Z,9.14
2023-03-27T10:00:15.678Z,9.49
2023-03-27T10:02:46.892Z,9.05
2023-03-27T10:05:20.067Z,9.92
2023-03-27T10:07:51.680Z,9.94
2023-03-27T10:10:45.074Z,9.49
2023-03-27T10:13:46.589Z,9.47
2023-03-27T10:16:18.344Z,9.61
2023-03-27T10:18:59.597Z,9.59
2023-03-27T10:21:38.521Z,8.94
2023-03-27T10:24:18.914Z,9.45
2023-03-27T10:27:08.978Z,10.00
2023-03-27T10:29:41.285Z,10.29
2023-03-27T10:32:13.029Z,9.98
2023-03-27T10:35:27.186Z,10.32
2023-03-27T10:38:15.346Z,10.44
2023-03-27T10:41:28.660Z,10.02
2023-03-27T10:43:58.147Z,9.70
2023-03-27T10:46:28.064Z,9.30
2023-03-27T10:49:11.075Z,9.82
2023-03-27T10:51:54.806Z,9.93
2023-03-27T10:54:41.611Z,9.86
2023-03-27T10:57:21.151Z,9.67
2023-03-27T11:00:19.922Z,9.49
2023-03-27T11:03:16.466Z,9.77
2023-03-27T11:05:48.307Z,10.13
2023-03-27T11:08:51.360Z,10.60
2023-03-27T11:11:30.706Z,10.55
2023-03-27T11:14:05.821Z,10.72
2023-03-27T11:16:39.705Z,10.56
2023-03-27T11:19:37.863Z,10.86
2023-03-27T11:22:29.918Z,10.92
2023-03-27T11:25:14.533Z,10.87
2023-03-27T11:27:56.033Z,10.55
2023-03-27T11:30:41.204Z,11.90
2023-03-27T11:33:25.631Z,12.92
2023-03-27T11:36:39.673Z,11.99
2023-03-27T11:39:43.616Z,10.56
2023-03-27T11:42:17.623Z,10.07
2023-03-27T11:44:47.473Z,10.07
2023-03-27T11:47:46.702Z,10.40
2023-03-27T11:50:23.820Z,10.67
2023-03-27T11:53:19.002Z,10.53
2023-03-27T11:56:30.581Z,13.16
2023-03-27T11:59:41.701Z,14.66
2023-03-27T12:02:37.097Z,13.18
2023-03-27T12:05:18.920Z,12.65
2023-03-27T12:07:58.456Z,11.59
2023-03-27T12:10:32.853Z,11.09
2023-03-27T12:14:02.069Z,9.66
2023-03-27T12:16:59.214Z,10.58
2023-03-27T12:19:52.234Z,10.21
2023-03-27T12:22:56.494Z,10.32
2023-03-27T12:25:52.095Z,11.12
2023-03-27T12:29:04.342Z,10.28
2023-03-27T12:31:54.297Z,10.17
2023-03-27T12:34:40.092Z,9.73
2023-03-27T12:37:12.142Z,9.01
2023-03-27T12:39:51.877Z,9.41
2023-03-27T12:42:44.014Z,10.01
2023-03-27T12:45:18.090Z,9.66
2023-03-27T12:48:10.569Z,10.17
2023-03-27T12:50:42.069Z,10.44
2023-03-27T12:53:27.107Z,9.88
2023-03-27T12:56:35.483Z,9.92
2023-03-27T12:59:18.131Z,9.53
2023-03-27T13:01:52.695Z,8.94
2023-03-27T13:04:43.218Z,8.84
2023-03-27T13:07:36.284Z,8.83
2023-03-27T13:11:10.579Z,8.94
2023-03-27T13:14:08.125Z,9.18
2023-03-27T13:16:54.438Z,9.76
2023-03-27T13:19:47.620Z,9.36
2023-03-27T13:22:45.698Z,9.67
2023-03-27T13:26:10.424Z,9.44
2023-03-27T13:28:48.546Z,9.35
2023-03-27T13:31:45.479Z,10.11
2023-03-27T13:34:42.439Z,10.16
2023-03-27T13:37:14.797Z,9.91
2023-03-27T13:40:07.667Z,10.26
2023-03-27T13:42:43.346Z,10.82
2023-03-27T13:45:37.188Z,10.04
2023-03-27T13:48:50.395Z,10.57
2023-03-27T13:51:40.985Z,11.57
2023-03-27T13:54:51.227Z,12.45
2023-03-27T13:57:27.866Z,12.54
2023-03-27T14:00:22.725Z,12.02
2023-03-27T14:03:22.337Z,11.20
2023-03-27T14:06:31.463Z,11.09
2023-03-27T14:09:35.850Z,10.67
2023-03-27T14:12:46.124Z,10.45
2023-03-27T14:15:46.585Z,10.23
2023-03-27T14:18:51.966Z,10.07
2023-03-27T14:21:37.934Z,9.97
2023-03-27T14:24:24.249Z,10.12
2023-03-27T14:26:55.712Z,10.36
2023-03-27T14:29:22.527Z,9.31
2023-03-27T14:31:51.170Z,9.20
2023-03-27T14:34:54.200Z,8.82
2023-03-27T14:38:03.519Z,9.03
2023-03-27T14:40:47.692Z,8.39
2023-03-27T14:43:18.776Z,8.37
2023-03-27T14:45:53.588Z,7.65
2023-03-27T14:48:29.405Z,7.90
2023-03-27T14:51:01.880Z,8.06
2023-03-27T14:53:44.263Z,7.92
2023-03-27T14:56:41.733Z,8.36
2023-03-27T14:59:33.672Z,9.55
2023-03-27T15:02:13.397Z,10.03
2023-03-27T15:04:40.543Z,10.01
2023-03-27T15:07:28.594Z,9.51
2023-03-27T15:10:07.803Z,9.30
2023-03-27T15:12:54.024Z,9.26
2023-03-27T15:15:34.461Z,8.51
2023-03-27T15:18:05.114Z,7.40
2023-03-27T15:20:34.405Z,7.63
2023-03-27T15:23:22.970Z,6.97
2023-03-27T15:26:02.391Z,7.60
2023-03-27T15:28:40.304Z,9.60
2023-03-27T15:31:09.723Z,11.29
2023-03-27T15:33:46.439Z,11.87
2023-03-27T15:36:26.272Z,11.58
2023-03-27T15:38:55.094Z,10.76
2023-03-27T15:41:37.332Z,9.82
2023-03-27T15:44:08.929Z,9.70
2023-03-27T15:46:47.972Z,9.12
2023-03-27T15:49:37.188Z,9.36
2023-03-27T15:52:31.081Z,9.19
2023-03-27T15:54:58.760Z,9.44
2023-03-27T15:57:29.153Z,9.58
2023-03-27T16:00:01.138Z,8.96
2023-03-27T16:02:28.546Z,9.26
2023-03-27T16:04:57.573Z,8.69
2023-03-27T16:07:29.103Z,9.18
2023-03-27T16:10:02.207Z,9.62
2023-03-27T16:12:55.788Z,9.53
2023-03-27T16:15:44.775Z,9.67
2023-03-27T16:18:27.778Z,9.54
2023-03-27T16:21:05.793Z,9.83
2023-03-27T16:23:32.501Z,9.82
2023-03-27T16:26:00.355Z,9.97
2023-03-27T16:28:29.893Z,10.11
2023-03-27T16:30:57.862Z,9.81
2023-03-27T16:33:27.356Z,10.13
2023-03-27T16:35:56.162Z,10.16
2023-03-27T16:38:23.143Z,10.27
2023-03-27T16:40:49.832Z,10.19
2023-03-27T16:43:16.469Z,10.08
2023-03-27T16:45:43.358Z,8.94
2023-03-27T16:48:10.423Z,8.26
2023-03-27T16:50:37.016Z,8.70
2023-03-27T16:53:03.753Z,8.57
2023-03-27T16:55:30.407Z,8.69
2023-03-27T16:57:57.058Z,8.57
2023-03-27T17:00:23.766Z,8.65
2023-03-27T17:02:50.350Z,8.66
2023-03-27T17:05:17.003Z,8.66
2023-03-27T17:07:46.377Z,8.35
2023-03-27T17:10:12.938Z,8.18
2023-03-27T17:12:39.943Z,8.45
2023-03-27T17:15:07.177Z,8.05
2023-03-27T17:17:33.789Z,8.17
2023-03-27T17:20:01.059Z,8.35
2023-03-27T17:22:29.836Z,7.93
2023-03-27T17:24:57.907Z,8.18
2023-03-27T17:27:26.895Z,8.21
2023-03-27T17:29:55.952Z,7.89
2023-03-27T17:32:23.879Z,8.07
2023-03-27T17:34:52.029Z,8.14
2023-03-27T17:37:19.744Z,8.16
2023-03-27T17:39:46.623Z,8.20
2023-03-27T17:42:13.347Z,8.25
2023-03-27T17:44:41.383Z,8.31
2023-03-27T17:47:08.395Z,8.24
2023-03-27T17:49:35.256Z,8.31
2023-03-27T17:52:07.641Z,8.20
2023-03-27T17:54:34.716Z,8.16
2023-03-27T17:57:01.665Z,8.20
2023-03-27T17:59:30.616Z,8.22
2023-03-27T18:01:57.903Z,8.22
2023-03-27T18:04:25.865Z,8.21
2023-03-27T18:06:53.035Z,8.33
2023-03-27T18:09:19.775Z,8.29
2023-03-27T18:11:46.969Z,8.31
2023-03-27T18:14:13.828Z,8.30
2023-03-27T18:16:40.492Z,8.36
2023-03-27T18:19:08.710Z,8.25
2023-03-27T18:21:35.748Z,8.39
2023-03-27T18:24:02.377Z,8.44
2023-03-27T18:26:28.951Z,8.45
2023-03-27T18:28:55.567Z,8.54
2023-03-27T18:31:22.138Z,8.57
2023-03-27T18:33:49.061Z,8.61
2023-03-27T18:36:16.198Z,8.60
2023-03-27T18:38:42.849Z,8.72
2023-03-27T18:41:10.198Z,8.82
2023-03-27T18:43:37.292Z,8.81
2023-03-27T18:46:05.822Z,8.77
2023-03-27T18:48:33.249Z,8.67
2023-03-27T18:51:02.554Z,8.72
2023-03-27T18:53:30.312Z,8.45
2023-03-27T18:55:58.424Z,8.51
2023-03-27T18:58:26.636Z,8.60
2023-03-27T19:00:54.759Z,8.65
2023-03-27T19:03:23.434Z,8.59
2023-03-27T19:05:51.988Z,7.25
2023-03-27T19:08:20.114Z,6.79
2023-03-27T19:10:46.705Z,7.24
2023-03-27T19:13:18.030Z,7.32
2023-03-27T19:16:14.231Z,7.32
2023-03-27T19:19:04.941Z,7.60
2023-03-27T19:21:50.670Z,7.65
2023-03-27T19:24:41.167Z,7.62
2023-03-27T19:27:08.163Z,7.68
2023-03-27T19:29:50.945Z,7.41
2023-03-27T19:32:17.492Z,7.47
2023-03-27T19:34:44.572Z,7.39
2023-03-27T19:37:11.240Z,7.25
2023-03-27T19:39:37.909Z,7.19
2023-03-27T19:42:04.662Z,7.32
2023-03-27T19:44:34.379Z,7.21
2023-03-27T19:47:03.793Z,7.47
2023-03-27T19:49:30.706Z,7.00
2023-03-27T19:52:09.699Z,7.15
2023-03-27T19:54:36.412Z,7.36
2023-03-27T19:57:03.048Z,7.28
2023-03-27T19:59:31.299Z,7.39
2023-03-27T20:01:58.680Z,7.29
2023-03-27T20:04:25.323Z,7.33
2023-03-27T20:06:51.924Z,7.35
2023-03-27T20:09:18.984Z,7.38
2023-03-27T20:11:46.729Z,7.24
2023-03-27T20:14:13.745Z,7.17
2023-03-27T20:16:40.465Z,7.28
2023-03-27T20:19:07.559Z,7.19
2023-03-27T20:21:37.530Z,7.21
2023-03-27T20:24:12.127Z,7.20
2023-03-27T20:26:42.166Z,7.14
2023-03-27T20:29:22.613Z,7.16
2023-03-27T20:31:49.552Z,6.95
2023-03-27T20:34:19.090Z,7.06
2023-03-27T20:36:46.030Z,6.99
2023-03-27T20:39:28.891Z,6.87
2023-03-27T20:41:58.792Z,7.20
2023-03-27T20:44:35.417Z,7.06
2023-03-27T20:47:11.128Z,7.19
2023-03-27T20:49:45.323Z,7.20
2023-03-27T20:52:14.634Z,7.10
2023-03-27T20:54:41.617Z,7.05
2023-03-27T20:57:11.160Z,6.91
2023-03-27T20:59:37.926Z,7.05
2023-03-27T21:02:04.976Z,6.95
2023-03-27T21:04:31.838Z,6.85
2023-03-27T21:06:58.904Z,6.85
2023-03-27T21:09:26.942Z,6.94
2023-03-27T21:11:55.399Z,7.05
2023-03-27T21:14:22.313Z,6.97
2023-03-27T21:16:49.046Z,6.97
2023-03-27T21:19:16.051Z,7.07
2023-03-27T21:21:43.474Z,7.04
2023-03-27T21:24:10.340Z,6.84
2023-03-27T21:26:37.036Z,7.09
2023-03-27T21:29:03.809Z,7.26
2023-03-27T21:31:30.666Z,7.26
2023-03-27T21:33:57.282Z,7.33
2023-03-27T21:36:24.564Z,7.34
2023-03-27T21:38:51.984Z,7.11
2023-03-27T21:41:18.565Z,7.33
2023-03-27T21:43:45.164Z,7.24
2023-03-27T21:46:12.243Z,7.02
2023-03-27T21:48:44.527Z,7.10
2023-03-27T21:51:11.141Z,6.91
2023-03-27T21:53:37.794Z,7.10
2023-03-27T21:56:04.550Z,7.01
2023-03-27T21:58:31.182Z,6.99
2023-03-27T22:00:58.298Z,7.23
2023-03-27T22:03:26.710Z,6.92
2023-03-27T22:06:08.049Z,6.79
2023-03-27T22:08:39.140Z,7.05
2023-03-27T22:11:06.235Z,7.25
2023-03-27T22:13:36.092Z,6.97
2023-03-27T22:16:12.004Z,6.76
2023-03-27T22:18:38.785Z,6.82
2023-03-27T22:21:13.879Z,7.04
2023-03-27T22:23:40.564Z,7.26
2023-03-27T22:26:07.155Z,7.01
2023-03-27T22:28:33.761Z,7.13
2023-03-27T22:31:00.617Z,7.01
2023-03-27T22:33:27.175Z,6.86
2023-03-27T22:35:53.741Z,7.13
2023-03-27T22:38:20.530Z,7.04
2023-03-27T22:40:47.053Z,7.09
2023-03-27T22:43:22.979Z,7.36
2023-03-27T22:45:50.755Z,7.19
2023-03-27T22:48:17.609Z,7.42
2023-03-27T22:50:45.664Z,7.01
2023-03-27T22:53:12.194Z,7.34
2023-03-27T22:55:38.744Z,6.81
2023-03-27T22:58:05.508Z,6.89
2023-03-27T23:00:32.062Z,6.96
2023-03-27T23:02:58.661Z,6.82
2023-03-27T23:05:25.580Z,6.58
2023-03-27T23:07:52.139Z,6.90
2023-03-27T23:10:18.758Z,7.13
2023-03-27T23:12:45.289Z,7.22
2023-03-27T23:15:11.902Z,6.95
2023-03-27T23:17:38.514Z,6.93
2023-03-27T23:20:05.668Z,7.43
2023-03-27T23:22:32.263Z,6.93
2023-03-27T23:24:58.935Z,7.01
2023-03-27T23:27:26.109Z,7.09
2023-03-27T23:29:52.624Z,6.95
2023-03-27T23:32:19.176Z,7.29
2023-03-27T23:34:45.946Z,7.13
2023-03-27T23:37:12.511Z,7.36
2023-03-27T23:39:39.079Z,7.18
2023-03-27T23:42:05.672Z,7.20
2023-03-27T23:44:32.215Z,7.29
2023-03-27T23:46:58.744Z,6.97
2023-03-27T23:49:25.552Z,7.09
2023-03-27T23:51:52.088Z,7.29
2023-03-27T23:54:18.622Z,7.22
2023-03-27T23:56:45.267Z,7.18
2023-03-27T23:59:11.943Z,7.30
